createdAt,value
2018-07-22T00:00:52.536Z,66.02
2018-07-22T00:03:20.644Z,65.69
2018-07-22T00:05:48.711Z,65.26
2018-07-22T00:08:16.731Z,65.98
2018-07-22T00:10:44.698Z,64.97
2018-07-22T00:13:12.622Z,66.16
2018-07-22T00:15:40.914Z,65.86
2018-07-22T00:18:08.936Z,65.97
2018-07-22T00:20:36.931Z,66.34
2018-07-22T00:23:04.928Z,65.40
2018-07-22T00:25:33.048Z,63.89
2018-07-22T00:28:01.076Z,62.74
2018-07-22T00:30:29.158Z,62.88
2018-07-22T00:32:57.208Z,63.84
2018-07-22T00:35:25.156Z,65.61
2018-07-22T00:37:53.067Z,65.90
2018-07-22T00:40:21.056Z,65.74
2018-07-22T00:42:49.102Z,65.71
2018-07-22T00:45:17.114Z,65.65
2018-07-22T00:47:45.178Z,64.33
2018-07-22T00:50:13.241Z,64.27
2018-07-22T00:52:41.255Z,64.03
2018-07-22T00:55:09.294Z,63.24
2018-07-22T00:57:37.318Z,64.83
2018-07-22T01:00:06.627Z,65.25
2018-07-22T01:02:34.653Z,65.85
2018-07-22T01:05:02.648Z,65.61
2018-07-22T01:07:30.773Z,66.00
2018-07-22T01:09:58.745Z,65.29
2018-07-22T01:12:26.902Z,63.10
2018-07-22T01:14:54.937Z,63.69
2018-07-22T01:17:22.888Z,64.83
2018-07-22T01:19:50.968Z,64.78
2018-07-22T01:22:18.973Z,65.46
2018-07-22T01:24:47.007Z,66.14
2018-07-22T01:27:15.030Z,65.00
2018-07-22T01:29:43.057Z,63.81
2018-07-22T01:32:11.738Z,61.90
2018-07-22T01:34:40.038Z,61.44
2018-07-22T01:37:08.220Z,59.85
2018-07-22T01:39:36.258Z,59.94
2018-07-22T01:42:04.317Z,60.10
2018-07-22T01:44:32.251Z,59.97
2018-07-22T01:47:00.233Z,58.99
2018-07-22T01:49:28.246Z,59.26
2018-07-22T01:51:56.236Z,58.92
2018-07-22T01:54:24.245Z,58.74
2018-07-22T01:56:52.271Z,60.57
2018-07-22T01:59:20.269Z,61.32
2018-07-22T02:01:48.284Z,63.06
2018-07-22T02:04:16.233Z,63.08
2018-07-22T02:06:44.650Z,63.80
2018-07-22T02:09:13.548Z,63.83
2018-07-22T02:11:41.571Z,63.86
2018-07-22T02:14:09.610Z,63.89
2018-07-22T02:16:37.547Z,64.72
2018-07-22T02:19:05.925Z,65.68
2018-07-22T02:21:34.405Z,66.09
2018-07-22T02:24:02.408Z,66.20
2018-07-22T02:26:30.537Z,67.00
2018-07-22T02:28:58.570Z,66.96
2018-07-22T02:31:26.671Z,66.76
2018-07-22T02:33:54.958Z,67.00
2018-07-22T02:36:22.864Z,66.68
2018-07-22T02:38:50.987Z,66.38
2018-07-22T02:41:18.983Z,66.90
2018-07-22T02:43:47.454Z,66.71
2018-07-22T02:46:17.625Z,66.31
2018-07-22T02:48:45.807Z,66.45
2018-07-22T02:51:13.811Z,66.23
2018-07-22T02:53:41.752Z,66.14
2018-07-22T02:56:09.815Z,66.83
2018-07-22T02:58:37.883Z,67.27
2018-07-22T03:01:06.162Z,66.53
2018-07-22T03:03:34.189Z,66.39
2018-07-22T03:06:02.247Z,66.88
2018-07-22T03:08:30.315Z,66.03
2018-07-22T03:10:58.644Z,66.24
2018-07-22T03:13:26.723Z,65.70
2018-07-22T03:15:54.844Z,66.31
2018-07-22T03:18:22.790Z,66.03
2018-07-22T03:20:50.745Z,66.33
2018-07-22T03:23:18.683Z,66.02
2018-07-22T03:25:46.624Z,65.60
2018-07-22T03:28:14.649Z,64.89
2018-07-22T03:30:42.779Z,64.71
2018-07-22T03:33:11.065Z,63.81
2018-07-22T03:35:39.079Z,63.55
2018-07-22T03:38:07.005Z,62.78
2018-07-22T03:40:35.177Z,63.59
2018-07-22T03:43:03.195Z,63.54
2018-07-22T03:45:31.206Z,62.98
2018-07-22T03:47:59.088Z,61.92
2018-07-22T03:50:27.331Z,61.53
2018-07-22T03:52:55.342Z,61.41
2018-07-22T03:55:23.309Z,61.83
2018-07-22T03:57:51.486Z,62.63
2018-07-22T04:00:19.585Z,62.54
2018-07-22T04:02:47.520Z,62.88
2018-07-22T04:05:15.525Z,62.23
2018-07-22T04:07:43.564Z,62.28
2018-07-22T04:10:11.651Z,61.14
2018-07-22T04:12:39.716Z,60.79
2018-07-22T04:15:08.034Z,60.89
2018-07-22T04:17:36.092Z,61.82
2018-07-22T04:20:04.420Z,60.73
2018-07-22T04:22:32.617Z,60.79
2018-07-22T04:25:00.939Z,60.85
2018-07-22T04:27:28.984Z,61.01
2018-07-22T04:29:56.985Z,60.54
2018-07-22T04:32:25.010Z,60.36
2018-07-22T04:34:53.024Z,60.66
2018-07-22T04:37:21.093Z,60.73
2018-07-22T04:39:49.182Z,60.25
2018-07-22T04:42:17.339Z,60.63
2018-07-22T04:44:45.293Z,60.43
2018-07-22T04:47:13.341Z,60.24
2018-07-22T04:49:41.250Z,60.46
2018-07-22T04:52:09.696Z,59.95
2018-07-22T04:54:37.697Z,60.76
2018-07-22T04:57:05.979Z,60.18
2018-07-22T04:59:34.252Z,59.66
2018-07-22T05:02:02.412Z,58.90
2018-07-22T05:04:30.520Z,58.50
2018-07-22T05:06:58.616Z,58.29
2018-07-22T05:09:26.688Z,58.47
2018-07-22T05:11:54.758Z,58.86
2018-07-22T05:14:22.769Z,58.94
2018-07-22T05:16:50.782Z,59.55
2018-07-22T05:19:18.899Z,60.33
2018-07-22T05:21:47.032Z,60.44
2018-07-22T05:24:15.097Z,60.35
2018-07-22T05:26:43.167Z,59.30
2018-07-22T05:29:11.368Z,59.55
2018-07-22T05:31:39.447Z,59.24
2018-07-22T05:34:07.470Z,58.49
2018-07-22T05:36:35.535Z,58.65
2018-07-22T05:39:05.615Z,58.84
2018-07-22T05:41:33.604Z,59.09
2018-07-22T05:44:01.668Z,58.30
2018-07-22T05:46:29.707Z,58.27
2018-07-22T05:48:57.844Z,58.33
2018-07-22T05:51:25.894Z,58.03
2018-07-22T05:53:54.026Z,56.58
2018-07-22T05:56:22.098Z,57.31
2018-07-22T05:58:50.239Z,57.57
2018-07-22T06:01:18.794Z,55.94
2018-07-22T06:03:46.840Z,57.11
2018-07-22T06:06:14.844Z,56.69
2018-07-22T06:08:42.804Z,56.64
2018-07-22T06:11:10.824Z,55.57
2018-07-22T06:13:39.068Z,55.79
2018-07-22T06:16:07.248Z,55.16
2018-07-22T06:18:35.313Z,54.62
2018-07-22T06:21:03.429Z,55.86
2018-07-22T06:23:31.443Z,57.04
2018-07-22T06:25:59.434Z,56.79
2018-07-22T06:28:27.429Z,56.22
2018-07-22T06:30:55.610Z,56.19
2018-07-22T06:33:23.672Z,56.79
2018-07-22T06:35:51.728Z,56.29
2018-07-22T06:38:19.721Z,55.35
2018-07-22T06:40:47.712Z,55.07
2018-07-22T06:43:15.804Z,53.87
2018-07-22T06:45:43.871Z,53.04
2018-07-22T06:48:11.919Z,52.40
2018-07-22T06:50:39.906Z,53.74
2018-07-22T06:53:07.919Z,53.00
2018-07-22T06:55:36.939Z,52.70
2018-07-22T06:58:05.191Z,53.10
2018-07-22T07:00:33.127Z,51.87
2018-07-22T07:03:01.100Z,50.29
2018-07-22T07:05:29.050Z,51.47
2018-07-22T07:07:57.015Z,51.63
2018-07-22T07:10:25.092Z,51.80
2018-07-22T07:12:53.182Z,52.05
2018-07-22T07:15:21.152Z,50.36
2018-07-22T07:17:49.143Z,49.52
2018-07-22T07:20:17.246Z,50.21
2018-07-22T07:22:45.353Z,49.61
2018-07-22T07:25:13.467Z,49.38
2018-07-22T07:27:41.557Z,49.75
2018-07-22T07:30:09.684Z,49.19
2018-07-22T07:32:37.705Z,50.39
2018-07-22T07:35:05.774Z,50.41
2018-07-22T07:37:33.879Z,50.01
2018-07-22T07:40:01.961Z,49.69
2018-07-22T07:42:29.987Z,49.52
2018-07-22T07:44:57.956Z,49.07
2018-07-22T07:47:25.964Z,48.23
2018-07-22T07:49:54.014Z,48.10
2018-07-22T07:52:22.086Z,49.59
2018-07-22T07:54:50.149Z,49.19
2018-07-22T07:57:18.338Z,48.23
2018-07-22T07:59:46.479Z,47.83
2018-07-22T08:02:14.758Z,48.38
2018-07-22T08:04:42.967Z,47.51
2018-07-22T08:07:11.226Z,46.99
2018-07-22T08:09:40.123Z,46.47
2018-07-22T08:12:12.394Z,45.95
2018-07-22T08:14:40.719Z,46.44
2018-07-22T08:17:10.197Z,46.54
2018-07-22T08:19:40.348Z,46.63
2018-07-22T08:22:08.534Z,47.47
2018-07-22T08:24:36.655Z,46.70
2018-07-22T08:27:05.157Z,46.55
2018-07-22T08:29:34.397Z,46.49
2018-07-22T08:32:03.700Z,47.43
2018-07-22T08:34:31.793Z,47.46
2018-07-22T08:38:29.236Z,46.02
2018-07-22T08:40:58.128Z,45.91
2018-07-22T08:43:26.121Z,45.77
2018-07-22T08:45:55.182Z,46.84
2018-07-22T08:48:23.419Z,47.46
2018-07-22T08:50:51.744Z,46.38
2018-07-22T08:53:19.841Z,45.82
2018-07-22T08:55:48.423Z,46.10
2018-07-22T08:58:16.431Z,47.35
2018-07-22T09:00:44.471Z,46.46
2018-07-22T09:03:12.612Z,45.60
2018-07-22T09:05:40.743Z,44.54
2018-07-22T09:08:08.819Z,45.14
2018-07-22T09:10:36.828Z,44.92
2018-07-22T09:13:04.799Z,44.87
2018-07-22T09:15:32.852Z,44.59
2018-07-22T09:18:00.851Z,43.57
2018-07-22T09:20:28.864Z,43.64
2018-07-22T09:22:56.921Z,45.27
2018-07-22T09:25:25.009Z,45.02
2018-07-22T09:27:52.996Z,45.93
2018-07-22T09:30:21.169Z,42.69
2018-07-22T09:32:49.259Z,42.88
2018-07-22T09:35:17.243Z,44.10
2018-07-22T09:37:45.436Z,43.25
2018-07-22T09:40:13.479Z,43.01
2018-07-22T09:42:41.499Z,44.29
2018-07-22T09:45:09.515Z,44.77
2018-07-22T09:47:37.645Z,43.56
2018-07-22T09:50:09.379Z,43.69
2018-07-22T09:52:41.417Z,43.63
2018-07-22T09:55:09.920Z,42.26
2018-07-22T09:57:38.427Z,43.09
2018-07-22T10:00:06.755Z,43.67
2018-07-22T10:02:34.812Z,41.66
2018-07-22T10:05:02.907Z,42.17
2018-07-22T10:07:30.965Z,41.29
2018-07-22T10:09:59.115Z,41.50
2018-07-22T10:12:27.204Z,42.28
2018-07-22T10:14:55.182Z,41.15
2018-07-22T10:17:23.246Z,41.62
2018-07-22T10:19:51.312Z,40.82
2018-07-22T10:22:19.296Z,40.80
2018-07-22T10:24:47.396Z,39.80
2018-07-22T10:27:15.654Z,40.41
2018-07-22T10:29:43.682Z,39.75
2018-07-22T10:32:11.756Z,40.41
2018-07-22T10:34:39.873Z,39.92
2018-07-22T10:37:07.813Z,40.74
2018-07-22T10:39:35.840Z,40.43
2018-07-22T10:42:03.957Z,38.99
2018-07-22T10:44:31.951Z,38.62
2018-07-22T10:47:00.094Z,37.37
2018-07-22T10:49:28.175Z,37.35
2018-07-22T10:51:56.164Z,38.24
2018-07-22T10:54:24.233Z,37.80
2018-07-22T10:56:52.215Z,39.51
2018-07-22T10:59:20.456Z,39.24
2018-07-22T11:01:48.415Z,39.23
2018-07-22T11:04:16.403Z,37.95
2018-07-22T11:06:44.363Z,39.02
2018-07-22T11:09:12.843Z,38.90
2018-07-22T11:11:40.861Z,38.15
2018-07-22T11:14:08.849Z,38.29
2018-07-22T11:16:36.911Z,38.90
2018-07-22T11:19:05.035Z,37.08
2018-07-22T11:21:33.001Z,37.66
2018-07-22T11:24:01.089Z,36.12
2018-07-22T11:26:29.296Z,37.05
2018-07-22T11:28:57.532Z,37.81
2018-07-22T11:31:25.563Z,38.20
2018-07-22T11:33:53.814Z,35.60
2018-07-22T11:36:21.859Z,37.31
2018-07-22T11:38:49.938Z,36.87
2018-07-22T11:41:17.990Z,37.99
2018-07-22T11:43:46.090Z,36.97
2018-07-22T11:46:14.153Z,37.25
2018-07-22T11:48:42.241Z,35.75
2018-07-22T11:51:10.777Z,35.63
2018-07-22T11:53:39.459Z,36.39
2018-07-22T11:56:07.470Z,36.87
2018-07-22T11:58:35.575Z,36.34
2018-07-22T12:01:03.604Z,36.02
2018-07-22T12:03:31.916Z,35.13
2018-07-22T12:06:00.099Z,35.17
2018-07-22T12:08:28.355Z,34.99
2018-07-22T12:10:56.371Z,35.21
2018-07-22T12:13:24.348Z,35.69
2018-07-22T12:15:52.698Z,35.07
2018-07-22T12:18:20.835Z,35.20
2018-07-22T12:20:48.890Z,34.56
2018-07-22T12:23:16.998Z,35.19
2018-07-22T12:25:45.246Z,34.66
2018-07-22T12:28:13.258Z,33.82
2018-07-22T12:30:41.202Z,33.28
2018-07-22T12:33:09.628Z,35.25
2018-07-22T12:35:37.673Z,34.83
2018-07-22T12:38:05.860Z,35.62
2018-07-22T12:40:33.905Z,34.98
2018-07-22T12:43:01.850Z,36.06
2018-07-22T12:45:30.037Z,35.78
2018-07-22T12:47:58.244Z,35.11
2018-07-22T12:50:26.289Z,35.68
2018-07-22T12:52:54.309Z,35.30
2018-07-22T12:55:22.475Z,34.82
2018-07-22T12:57:50.764Z,34.55
2018-07-22T13:00:19.151Z,32.85
2018-07-22T13:02:47.199Z,30.05
2018-07-22T13:05:15.489Z,29.65
2018-07-22T13:07:43.547Z,29.30
2018-07-22T13:10:11.615Z,30.32
2018-07-22T13:12:39.693Z,31.23
2018-07-22T13:15:08.616Z,32.21
2018-07-22T13:17:38.132Z,31.68
2018-07-22T13:20:06.443Z,29.94
2018-07-22T13:22:34.523Z,29.17
2018-07-22T13:25:02.688Z,28.31
2018-07-22T13:27:30.815Z,28.67
2018-07-22T13:29:58.978Z,28.69
2018-07-22T13:32:27.192Z,26.82
2018-07-22T13:34:55.223Z,27.27
2018-07-22T13:37:25.239Z,26.41
2018-07-22T13:39:53.248Z,26.57
2018-07-22T13:42:21.271Z,27.82
2018-07-22T13:44:49.364Z,29.14
2018-07-22T13:47:17.495Z,29.64
2018-07-22T13:49:45.493Z,30.26
2018-07-22T13:52:13.496Z,32.50
2018-07-22T13:54:41.569Z,33.06
2018-07-22T13:57:09.570Z,34.00
2018-07-22T13:59:37.735Z,33.56
2018-07-22T14:02:06.267Z,34.08
2018-07-22T14:04:34.341Z,33.16
2018-07-22T14:07:02.539Z,31.25
2018-07-22T14:09:30.565Z,29.64
2018-07-22T14:11:58.611Z,28.97
2018-07-22T14:14:26.716Z,27.90
2018-07-22T14:16:54.877Z,27.46
2018-07-22T14:19:22.933Z,26.71
2018-07-22T14:21:50.980Z,27.71
2018-07-22T14:24:19.075Z,27.48
2018-07-22T14:26:47.134Z,27.69
2018-07-22T14:29:15.604Z,27.11
2018-07-22T14:31:43.735Z,26.99
2018-07-22T14:34:11.817Z,27.91
2018-07-22T14:36:40.028Z,29.20
2018-07-22T14:39:10.406Z,31.02
2018-07-22T14:41:38.393Z,30.75
2018-07-22T14:44:06.392Z,31.83
2018-07-22T14:46:34.536Z,32.73
2018-07-22T14:49:02.668Z,33.24
2018-07-22T14:51:30.743Z,34.96
2018-07-22T14:53:58.844Z,34.89
2018-07-22T14:56:27.064Z,34.85
2018-07-22T14:58:55.249Z,35.08
2018-07-22T15:01:23.343Z,35.60
2018-07-22T15:03:51.497Z,36.04
2018-07-22T15:06:19.862Z,36.16
2018-07-22T15:08:48.055Z,36.34
2018-07-22T15:11:16.189Z,36.18
2018-07-22T15:13:44.284Z,36.79
2018-07-22T15:16:12.527Z,35.34
2018-07-22T15:18:40.523Z,36.60
2018-07-22T15:21:09.639Z,36.92
2018-07-22T15:23:43.103Z,37.51
2018-07-22T15:26:11.149Z,37.14
2018-07-22T15:28:39.195Z,37.37
2018-07-22T15:31:10.415Z,37.66
2018-07-22T15:33:38.509Z,36.82
2018-07-22T15:36:06.557Z,37.17
2018-07-22T15:38:34.531Z,37.99
2018-07-22T15:41:05.905Z,37.50
2018-07-22T15:43:34.075Z,37.78
2018-07-22T15:46:02.093Z,41.39
2018-07-22T15:48:30.162Z,43.77
2018-07-22T15:50:58.239Z,45.31
2018-07-22T15:53:26.665Z,45.73
2018-07-22T15:55:56.767Z,47.73
2018-07-22T15:58:25.457Z,47.25
2018-07-22T16:00:53.490Z,46.81
2018-07-22T16:03:28.998Z,48.24
2018-07-22T16:05:57.138Z,49.53
2018-07-22T16:08:25.270Z,50.69
2018-07-22T16:10:53.277Z,50.22
2018-07-22T16:13:21.504Z,51.44
2018-07-22T16:15:49.626Z,52.31
2018-07-22T16:18:18.838Z,52.28
2018-07-22T16:20:46.900Z,52.73
2018-07-22T16:23:18.636Z,53.06
2018-07-22T16:25:46.711Z,52.81
2018-07-22T16:28:14.863Z,52.95
2018-07-22T16:30:43.009Z,52.63
2018-07-22T16:33:11.059Z,52.28
2018-07-22T16:35:39.164Z,53.02
2018-07-22T16:38:07.193Z,52.79
2018-07-22T16:40:35.129Z,53.87
2018-07-22T16:43:03.208Z,51.87
2018-07-22T16:45:31.333Z,48.43
2018-07-22T16:47:59.335Z,45.50
2018-07-22T16:50:27.457Z,45.54
2018-07-22T16:52:55.652Z,46.26
2018-07-22T16:55:23.675Z,47.22
2018-07-22T16:57:51.667Z,47.67
2018-07-22T17:00:19.773Z,47.70
2018-07-22T17:02:47.799Z,48.30
2018-07-22T17:05:16.087Z,50.22
2018-07-22T17:07:45.257Z,52.25
2018-07-22T17:10:15.797Z,52.53
2018-07-22T17:12:43.785Z,53.43
2018-07-22T17:15:12.200Z,52.80
2018-07-22T17:17:40.267Z,53.24
2018-07-22T17:20:09.263Z,53.06
2018-07-22T17:22:37.273Z,52.18
2018-07-22T17:25:05.541Z,53.05
2018-07-22T17:27:33.789Z,53.97
2018-07-22T17:30:05.915Z,53.01
2018-07-22T17:32:34.048Z,53.24
2018-07-22T17:35:02.017Z,54.57
2018-07-22T17:37:30.215Z,54.52
2018-07-22T17:39:59.255Z,54.16
2018-07-22T17:42:28.503Z,54.32
2018-07-22T17:44:57.209Z,54.75
2018-07-22T17:47:25.897Z,55.81
2018-07-22T17:49:54.197Z,55.35
2018-07-22T17:52:22.186Z,54.72
2018-07-22T17:54:50.463Z,53.39
2018-07-22T17:57:19.996Z,50.00
2018-07-22T17:59:48.197Z,48.45
2018-07-22T18:02:16.314Z,47.15
2018-07-22T18:04:44.456Z,48.12
2018-07-22T18:07:12.784Z,52.50
2018-07-22T18:09:42.248Z,53.43
2018-07-22T18:12:10.330Z,53.63
2018-07-22T18:14:38.441Z,50.80
2018-07-22T18:17:06.633Z,50.18
2018-07-22T18:19:34.729Z,51.52
2018-07-22T18:22:02.746Z,53.88
2018-07-22T18:24:30.833Z,54.51
2018-07-22T18:26:59.050Z,56.33
2018-07-22T18:29:27.071Z,57.75
2018-07-22T18:31:56.107Z,58.55
2018-07-22T18:34:24.409Z,58.89
2018-07-22T18:36:53.366Z,58.54
2018-07-22T18:39:21.706Z,59.19
2018-07-22T18:41:49.955Z,60.10
2018-07-22T18:44:18.911Z,61.52
2018-07-22T18:46:46.992Z,62.30
2018-07-22T18:49:15.029Z,62.70
2018-07-22T18:51:43.091Z,62.84
2018-07-22T18:54:11.145Z,62.54
2018-07-22T18:56:39.175Z,62.62
2018-07-22T18:59:07.443Z,63.36
2018-07-22T19:01:35.423Z,62.75
2018-07-22T19:04:03.491Z,62.58
2018-07-22T19:06:31.592Z,63.42
2018-07-22T19:08:59.716Z,63.34
2018-07-22T19:11:27.675Z,63.01
2018-07-22T19:13:55.754Z,63.38
2018-07-22T19:16:24.003Z,63.53
2018-07-22T19:18:52.159Z,63.69
2018-07-22T19:21:20.219Z,64.25
2018-07-22T19:23:48.242Z,66.77
2018-07-22T19:26:16.418Z,67.51
2018-07-22T19:28:44.396Z,66.94
2018-07-22T19:31:12.426Z,67.73
2018-07-22T19:33:41.529Z,67.53
2018-07-22T19:36:09.530Z,68.03
2018-07-22T19:38:37.681Z,68.22
2018-07-22T19:41:06.318Z,68.72
2018-07-22T19:43:34.390Z,68.35
2018-07-22T19:46:02.357Z,69.61
2018-07-22T19:48:30.444Z,70.12
2018-07-22T19:50:58.436Z,69.87
2018-07-22T19:53:26.503Z,70.07
2018-07-22T19:55:54.476Z,71.02
2018-07-22T19:58:22.457Z,71.01
2018-07-22T20:00:50.511Z,70.14
2018-07-22T20:03:18.850Z,70.69
2018-07-22T20:05:46.922Z,70.22
2018-07-22T20:08:14.827Z,70.86
2018-07-22T20:10:43.132Z,70.46
2018-07-22T20:13:11.076Z,70.30
2018-07-22T20:15:39.104Z,70.91
2018-07-22T20:18:07.192Z,70.87
2018-07-22T20:20:35.308Z,72.05
2018-07-22T20:23:03.448Z,72.14
2018-07-22T20:25:31.492Z,71.56
2018-07-22T20:27:59.487Z,71.43
2018-07-22T20:30:27.448Z,69.97
2018-07-22T20:32:55.475Z,70.57
2018-07-22T20:35:23.590Z,70.03
2018-07-22T20:37:51.502Z,70.75
2018-07-22T20:40:19.752Z,70.31
2018-07-22T20:42:47.664Z,70.95
2018-07-22T20:45:15.841Z,70.28
2018-07-22T20:47:43.874Z,70.65
2018-07-22T20:50:11.940Z,72.08
2018-07-22T20:52:39.975Z,73.28
2018-07-22T20:55:08.177Z,73.61
2018-07-22T20:57:36.306Z,72.99
2018-07-22T21:00:05.118Z,72.51
2018-07-22T21:02:33.230Z,73.43
2018-07-22T21:05:01.271Z,72.93
2018-07-22T21:07:29.316Z,72.42
2018-07-22T21:09:57.484Z,72.44
2018-07-22T21:12:47.587Z,72.77
2018-07-22T21:15:16.175Z,73.15
2018-07-22T21:17:45.593Z,73.33
2018-07-22T21:20:13.839Z,73.27
2018-07-22T21:22:41.853Z,73.49
2018-07-22T21:25:10.108Z,74.34
2018-07-22T21:27:38.131Z,73.98
2018-07-22T21:30:07.329Z,74.13
2018-07-22T21:32:35.525Z,74.39
2018-07-22T21:35:03.535Z,74.39
2018-07-22T21:37:31.618Z,74.62
2018-07-22T21:39:59.585Z,74.91
2018-07-22T21:42:27.587Z,74.65
2018-07-22T21:44:55.656Z,74.21
2018-07-22T21:47:23.627Z,74.79
2018-07-22T21:49:51.680Z,74.85
2018-07-22T21:52:19.659Z,73.73
2018-07-22T21:54:47.643Z,74.86
2018-07-22T21:57:15.640Z,75.25
2018-07-22T21:59:43.552Z,76.35
2018-07-22T22:02:11.616Z,76.30
2018-07-22T22:04:39.701Z,76.76
2018-07-22T22:07:07.858Z,76.64
2018-07-22T22:09:35.844Z,77.28
2018-07-22T22:12:03.941Z,78.11
2018-07-22T22:14:31.990Z,77.42
2018-07-22T22:17:00.130Z,76.72
2018-07-22T22:19:28.675Z,77.69
2018-07-22T22:21:56.657Z,77.09
2018-07-22T22:24:24.654Z,76.50
2018-07-22T22:26:52.734Z,76.97
2018-07-22T22:29:20.771Z,77.41
2018-07-22T22:31:48.777Z,77.21
2018-07-22T22:34:16.839Z,77.77
2018-07-22T22:36:44.868Z,77.52
2018-07-22T22:39:13.672Z,76.52
2018-07-22T22:41:42.580Z,76.43
2018-07-22T22:44:10.785Z,76.12
2018-07-22T22:46:39.449Z,75.89
2018-07-22T22:49:07.670Z,75.99
2018-07-22T22:51:35.895Z,75.79
2018-07-22T22:54:04.034Z,75.46
2018-07-22T22:56:32.074Z,74.77
2018-07-22T22:59:11.096Z,75.04
2018-07-22T23:01:39.118Z,74.74
2018-07-22T23:04:07.083Z,74.67
2018-07-22T23:06:36.225Z,75.96
2018-07-22T23:09:06.244Z,75.13
2018-07-22T23:11:34.353Z,75.61
2018-07-22T23:14:02.370Z,75.13
2018-07-22T23:16:30.366Z,75.74
2018-07-22T23:18:58.343Z,75.68
2018-07-22T23:21:26.472Z,76.88
2018-07-22T23:23:54.578Z,77.98
2018-07-22T23:26:22.679Z,78.56
2018-07-22T23:28:50.764Z,78.89
2018-07-22T23:31:18.735Z,79.66
2018-07-22T23:33:47.070Z,79.24
2018-07-22T23:36:15.092Z,79.61
2018-07-22T23:38:43.107Z,79.09
2018-07-22T23:41:11.013Z,78.25
2018-07-22T23:43:39.069Z,79.04
2018-07-22T23:46:07.260Z,78.30
2018-07-22T23:48:35.286Z,78.63
2018-07-22T23:51:03.387Z,78.66
2018-07-22T23:53:31.389Z,78.88
2018-07-22T23:55:59.647Z,78.02
2018-07-22T23:58:27.931Z,79.11
